Flight Track Log - Related Links

Times and Time Zones

All times are in EDT time to prevent confusion due to time zone crossing. See the ASQ5750 flight status page for this flight to view local times or setup timezone preferences in your user account.

Time Position Orientation Groundspeed Altitude Reporting Facility
EDT Latitude Longitude Course Direction KTS MPH feet Rate Location/Type
Sat 09:07:01 AM 42.0311 -87.8344 66° East 218 251 4,800  Level Chicago Center
Sat 09:07:40 AM 42.0500 -87.7500 73° East 263 303 7,200 2,772 Climbing Chicago TRACON
Sat 09:10:05 AM 42.1203 -87.5364 66° East 278 320 13,300 2,097 Climbing Chicago Center
Sat 09:11:00 AM 42.2198 -87.1907 66° East  Level FlightAware Approximate
Sat 09:11:06 AM 42.1422 -87.4294 74° East 307 353 14,400  Level Chicago Center
Sat 09:12:00 AM 42.2605 -87.0686 66° East  Level FlightAware Approximate
Sat 09:12:07 AM 42.1514 -87.3086 84° East 322 371 15,700  Level Chicago Center
Sat 09:13:09 AM 42.1594 -87.1819 85° East 336 387 17,200 1,415 Climbing Chicago Center
Sat 09:14:10 AM 42.1667 -87.0497 86° East 352 405 18,600 1,328 Climbing Chicago Center
Sat 09:15:11 AM 42.1742 -86.9186 86° East 352 405 19,900 1,220 Climbing Chicago Center
Sat 09:16:13 AM 42.1819 -86.7828 86° East 362 417 21,100 1,122 Climbing Chicago Center
Sat 09:17:14 AM 42.1892 -86.6331 86° East 368 423 22,200 934 Climbing Chicago Center
Sat 09:18:15 AM 42.1978 -86.4908 85° East 379 436 23,000 683 Climbing Chicago Center
Sat 09:19:17 AM 42.2047 -86.3458 86° East 386 444 23,600 585 Climbing Chicago Center
Sat 09:20:18 AM 42.2119 -86.1975 86° East 394 453 24,200 639 Climbing Chicago Center
Sat 09:21:19 AM 42.2197 -86.0444 86° East 405 466 24,900 634 Climbing Chicago Center
Sat 09:22:21 AM 42.2281 -85.8747 86° East 406 467 25,500 585 Climbing Chicago Center
Sat 09:23:22 AM 42.2353 -85.7219 86° East 410 472 26,100 590 Climbing Chicago Center
Sat 09:24:23 AM 42.2417 -85.5686 87° East 412 474 26,700 585 Climbing Chicago Center
Sat 09:25:25 AM 42.2492 -85.4158 86° East 411 473 27,300 661 Climbing Chicago Center
Sat 09:26:12 AM 42.2583 -85.2717 85° East 414 476 27,900 841 Climbing Cleveland Center
Sat 09:27:12 AM 42.2622 -85.1206 88° East 409 471 28,800 850 Climbing Cleveland Center
Sat 09:28:12 AM 42.2703 -84.9667 86° East 404 465 29,600 700 Climbing Cleveland Center
Sat 09:29:12 AM 42.2758 -84.8211 87° East 398 458 30,200 550 Climbing Cleveland Center
Sat 09:30:12 AM 42.2831 -84.6783 86° East 393 452 30,700 400 Climbing Cleveland Center
Sat 09:31:12 AM 42.2819 -84.5322 91° East 388 447 31,000 150 Climbing Cleveland Center
Sat 09:32:12 AM 42.2953 -84.3814 83° East 388 447 31,000  Level Cleveland Center
Sat 09:33:12 AM 42.3189 -84.2314 78° East 394 453 31,000  Level Cleveland Center
Sat 09:34:12 AM 42.3403 -84.0781 79° East 407 468 31,000  Level Cleveland Center
Sat 09:35:12 AM 42.3617 -83.9244 79° East 407 468 31,000  Level Cleveland Center
Sat 09:36:12 AM 42.3828 -83.7681 80° East 412 474 31,000  Level Cleveland Center
Sat 09:37:12 AM 42.4056 -83.6147 79° East 412 474 31,000  Level Cleveland Center
Sat 09:38:12 AM 42.4092 -83.4742 88° East 412 474 31,000  Level Cleveland Center
Sat 09:39:12 AM 42.4175 -83.3114 86° East 418 481 31,000  Level Cleveland Center
Sat 09:40:12 AM 42.4233 -83.1400 87° East 423 487 31,000  Level Cleveland Center
Sat 09:41:12 AM 42.4289 -82.9828 87° East 423 487 31,000  Level Cleveland Center
Sat 09:42:12 AM 42.4342 -82.8225 87° East 423 487 31,000  Level Cleveland Center
Sat 09:43:12 AM 42.4392 -82.6622 88° East 423 487 31,000  Level Cleveland Center
Sat 09:44:12 AM 42.4419 -82.5050 89° East 423 487 31,000  Level Cleveland Center
Sat 09:45:12 AM 42.4467 -82.3419 88° East 423 487 31,000  Level Cleveland Center
Sat 09:46:12 AM 42.4511 -82.1844 88° East 423 487 31,000  Level Cleveland Center
Sat 09:47:12 AM 42.4550 -82.0408 88° East 423 487 31,000  Level Cleveland Center
Sat 09:48:12 AM 42.4594 -81.8581 88° East 423 487 31,000  Level Cleveland Center
Sat 09:49:12 AM 42.4631 -81.7117 88° East 423 487 31,000  Level Cleveland Center
Sat 09:50:12 AM 42.4686 -81.5486 87° East 423 487 31,000  Level Cleveland Center
Sat 09:51:12 AM 42.4700 -81.3883 89° East 422 486 31,000  Level Cleveland Center
Sat 09:52:12 AM 42.4731 -81.2222 89° East 429 494 31,000  Level Cleveland Center
Sat 09:53:12 AM 42.4781 -81.0447 88° East 429 494 31,000  Level Cleveland Center
Sat 09:54:12 AM 42.4786 -80.8817 90° East 429 494 31,000  Level Cleveland Center
Sat 09:55:12 AM 42.4831 -80.7183 88° East 429 494 31,000  Level Cleveland Center
Sat 09:56:12 AM 42.4831 -80.5578 90° East 435 501 31,000  Level Cleveland Center
Sat 09:57:12 AM 42.4850 -80.3889 89° East 435 501 31,000  Level Cleveland Center
Sat 09:58:12 AM 42.4867 -80.2283 89° East 435 501 31,000  Level Cleveland Center
Sat 09:59:12 AM 42.4861 -80.0681 90° East 435 501 31,000  Level Cleveland Center
Sat 10:00:12 AM 42.4917 -79.9214 87° East 430 495 31,000  Level Cleveland Center
Sat 10:01:12 AM 42.4886 -79.7583 91° East 430 495 31,000  Level Cleveland Center
Sat 10:02:12 AM 42.4914 -79.5978 89° East 425 489 31,000  Level Cleveland Center
Sat 10:03:12 AM 42.4900 -79.4372 91° East 425 489 31,000  Level Cleveland Center
Sat 10:04:12 AM 42.4925 -79.2739 89° East 420 483 31,000  Level Cleveland Center
Sat 10:05:12 AM 42.5031 -79.1103 85° East 420 483 31,000  Level Cleveland Center
Sat 10:06:12 AM 42.5153 -78.9522 84° East 426 490 31,000  Level Cleveland Center
Sat 10:07:12 AM 42.5256 -78.7914 85° East 426 490 31,000  Level Cleveland Center
Sat 10:08:12 AM 42.5356 -78.6306 85° East 426 490 31,000  Level Cleveland Center
Sat 10:09:12 AM 42.5472 -78.4667 84° East 426 490 31,000  Level Cleveland Center
Sat 10:10:12 AM 42.5567 -78.3083 85° East 426 490 31,000  Level Cleveland Center
Sat 10:11:12 AM 42.5658 -78.1475 86° East 426 490 31,000  Level Cleveland Center
Sat 10:12:12 AM 42.5747 -77.9864 86° East 426 490 31,000  Level Cleveland Center
Sat 10:13:12 AM 42.5858 -77.8281 85° East 426 490 31,000  Level Cleveland Center
Sat 10:14:12 AM 42.5942 -77.6667 86° East 426 490 31,000 -293 Level Cleveland Center
Sat 10:15:56 AM 42.6100 -77.3781 86° East 444 511 30,200 -622 Descending Boston Center
Sat 10:16:56 AM 42.6192 -77.2094 86° East 444 511 29,300 -600 Descending Boston Center
Sat 10:17:56 AM 42.6283 -77.0350 86° East 454 522 29,000 -136 Descending Boston Center
Sat 10:19:08 AM 42.6372 -76.8661 86° East 454 522 29,000  Level Boston Center
Sat 10:20:08 AM 42.6492 -76.6664 85° East 448 516 29,000  Level Boston Center
Sat 10:21:08 AM 42.6550 -76.5031 87° East 438 504 29,000  Level Boston Center
Sat 10:22:08 AM 42.6628 -76.3397 86° East 438 504 29,000  Level Boston Center
Sat 10:23:08 AM 42.6725 -76.1794 85° East 432 497 29,000  Level Boston Center
Sat 10:24:08 AM 42.6775 -76.0158 88° East 432 497 29,000 -50 Level Boston Center
Sat 10:25:08 AM 42.6828 -75.8522 87° East 432 497 28,900 -694 Descending Boston Center
Sat 10:26:09 AM 42.6917 -75.6861 86° East 432 497 27,600 -1,850 Descending Boston Center
Sat 10:27:08 AM 42.6983 -75.5253 87° East 432 497 25,200 -2,370 Descending Boston Center
Sat 10:28:08 AM 42.7044 -75.3731 87° East 420 483 22,900 -2,200 Descending Boston Center
Sat 10:29:08 AM 42.7081 -75.2233 88° East 401 461 20,800 -2,100 Descending Boston Center
Sat 10:30:08 AM 42.7136 -75.0767 87° East 395 455 18,700 -1,900 Descending Boston Center
Sat 10:31:08 AM 42.7169 -74.9356 88° East 385 443 17,000 -2,000 Descending Boston Center
Sat 10:32:08 AM 42.7222 -74.7831 87° East 368 423 14,700 -2,274 Descending Boston Center
Sat 10:32:43 AM 42.7239 -74.7067 88° East 356 410 13,400 -1,900 Descending Boston Center
Sat 10:33:08 AM 42.7247 -74.6644 88° East 363 418 12,800 -1,970 Descending Boston Center
Sat 10:33:50 AM 42.7286 -74.5656 87° East 347 399 11,200 -1,700 Descending Boston Center
Sat 10:34:08 AM 42.7294 -74.5206 89° East 351 404 11,100 -436 Descending Boston Center
Sat 10:34:45 AM 42.7244 -74.4525 96° East 320 368 10,800 -500 Descending Boston Center
Sat 10:35:08 AM 42.7228 -74.4183 94° East 323 372 10,600 -1,818 Descending Boston Center
Sat 10:35:51 AM 42.7014 -74.3358 109° East 263 303 8,800 -2,300 Descending Boston Center
Sat 10:36:08 AM 42.6956 -74.3103 107° East 283 326 8,300 -1,770 Descending Boston Center
Sat 10:36:52 AM 42.6758 -74.2419 111° Southeast 268 308 7,000 -1,600 Descending Boston Center
Sat 10:37:08 AM 42.6719 -74.2275 110° East 266 306 6,700 -1,855 Descending Boston Center
Sat 10:37:47 AM 42.6478 -74.1619 117° Southeast 253 291 5,300 -1,900 Descending Boston Center
Sat 10:38:08 AM 42.6358 -74.1361 122° Southeast 250 288 4,800 -1,200 Descending Boston Center
Sat 10:38:47 AM 42.6072 -74.0903 130° Southeast 246 283 4,100 -800 Descending Boston Center
Sat 10:39:08 AM 42.5931 -74.0589 122° Southeast 250 288 4,000 -98 Descending Boston Center
Sat 10:39:48 AM 42.5772 -74.0050 112° Southeast 253 291 4,000  Level Boston Center
Sat 10:40:08 AM 42.5733 -73.9739 100° East 245 282 4,000  Level Boston Center
Sat 10:40:49 AM 42.5636 -73.9286 106° East 203 234 4,000 -400 Level Boston Center
Sat 10:41:08 AM 42.5597 -73.9031 102° East 208 239 3,600 -987 Descending Boston Center
Sat 10:42:08 AM 42.5544 -73.8353 96° East 181 208 2,700 -500 Descending Boston Center
Sat 10:42:56 AM 42.5839 -73.8050 37° Northeast 177 204 2,700 -117 Level Boston Center
Sat 10:43:51 AM 42.6278 -73.8003 North 173 199 2,500 -143 Descending Boston Center
Sat 10:44:20 AM 42.6406 -73.7836 44° Northeast 160 184 2,500 -787 Level Boston Center
Sat 10:44:52 AM 42.6714 -73.8039 334° Northwest 152 175 1,700 -1,043 Descending Boston Center
Sat 10:45:52 AM 42.7089 -73.8075 356° North 140 161 900 -800 Descending Boston Center
Sat 10:48:00 AM 42.7333 -73.8000 North  Level FlightAware Approximate
Sat 10:55:00 AM 42.7491 -73.8020 North  Level Estimated
Sat 10:56:00 AM 42.7491 -73.8020 North  Level Estimated

Login

Don't have an account? Register now (free) for customized features, flight alerts, and more!